createdAt,value
2023-03-16T00:01:37.537Z,-0.48
2023-03-16T00:04:39.503Z,-0.31
2023-03-16T00:07:42.333Z,-0.46
2023-03-16T00:10:46.773Z,-0.54
2023-03-16T00:13:48.546Z,-0.49
2023-03-16T00:16:50.518Z,-0.63
2023-03-16T00:19:55.071Z,-0.48
2023-03-16T00:22:57.171Z,-0.23
2023-03-16T00:26:03.015Z,-0.08
2023-03-16T00:29:04.865Z,0.02
2023-03-16T00:32:07.163Z,0.01
2023-03-16T00:35:09.789Z,0.10
2023-03-16T00:38:11.944Z,0.40
2023-03-16T00:41:16.056Z,0.98
2023-03-16T00:44:17.923Z,1.07
2023-03-16T00:47:19.584Z,1.33
2023-03-16T00:50:22.478Z,1.47
2023-03-16T00:53:24.274Z,1.75
2023-03-16T00:56:27.359Z,1.69
2023-03-16T00:59:29.858Z,1.73
2023-03-16T01:02:31.582Z,1.81
2023-03-16T01:05:33.526Z,1.98
2023-03-16T01:08:35.587Z,1.99
2023-03-16T01:11:38.657Z,2.06
2023-03-16T01:14:41.345Z,1.91
2023-03-16T01:17:43.077Z,1.72
2023-03-16T01:20:50.712Z,1.59
2023-03-16T01:23:53.931Z,1.40
2023-03-16T01:26:57.211Z,1.41
2023-03-16T01:30:00.271Z,1.23
2023-03-16T01:33:02.307Z,0.98
2023-03-16T01:36:06.516Z,0.76
2023-03-16T01:39:17.166Z,0.60
2023-03-16T01:42:24.150Z,0.39
2023-03-16T01:46:08.746Z,0.28
2023-03-16T01:49:23.781Z,0.22
2023-03-16T01:52:33.286Z,0.21
2023-03-16T01:55:36.053Z,-0.03
2023-03-16T01:58:43.990Z,-0.15
2023-03-16T02:01:47.710Z,-0.35
2023-03-16T02:04:58.047Z,-0.36
2023-03-16T02:08:01.701Z,-0.38
2023-03-16T02:11:06.872Z,-0.22
2023-03-16T02:14:18.969Z,-0.11
2023-03-16T02:17:23.156Z,-0.14
2023-03-16T02:20:36.148Z,-0.08
2023-03-16T02:23:38.043Z,-0.18
2023-03-16T02:26:47.542Z,-0.33
2023-03-16T02:30:07.818Z,-0.25
2023-03-16T02:33:18.591Z,-0.20
2023-03-16T02:36:21.167Z,-0.18
2023-03-16T02:39:26.252Z,0.18
2023-03-16T02:42:29.680Z,0.01
2023-03-16T02:45:39.769Z,0.86
2023-03-16T02:48:47.673Z,1.07
2023-03-16T02:51:49.370Z,1.11
2023-03-16T02:54:51.689Z,1.76
2023-03-16T02:57:53.636Z,1.96
2023-03-16T03:00:56.941Z,2.06
2023-03-16T03:03:58.691Z,2.11
2023-03-16T03:07:04.732Z,2.28
2023-03-16T03:10:11.287Z,2.17
2023-03-16T03:13:13.003Z,2.08
2023-03-16T03:16:16.864Z,2.00
2023-03-16T03:19:18.733Z,2.01
2023-03-16T03:22:20.456Z,1.89
2023-03-16T03:25:23.747Z,1.59
2023-03-16T03:28:28.119Z,1.30
2023-03-16T03:31:31.170Z,1.11
2023-03-16T03:34:32.969Z,0.94
2023-03-16T03:37:35.063Z,0.75
2023-03-16T03:40:37.525Z,0.48
2023-03-16T03:43:39.724Z,0.44
2023-03-16T03:46:47.947Z,0.31
2023-03-16T03:49:49.767Z,0.30
2023-03-16T03:52:51.909Z,0.47
2023-03-16T03:55:54.559Z,0.32
2023-03-16T03:58:56.493Z,0.35
2023-03-16T04:02:28.567Z,0.74
2023-03-16T04:05:30.963Z,0.89
2023-03-16T04:08:32.835Z,0.75
2023-03-16T04:11:34.653Z,1.22
2023-03-16T04:14:36.576Z,1.07
2023-03-16T04:17:43.827Z,1.13
2023-03-16T04:20:46.831Z,1.12
2023-03-16T04:23:55.142Z,1.07
2023-03-16T04:27:04.808Z,0.88
2023-03-16T04:30:11.233Z,0.66
2023-03-16T04:33:17.594Z,0.53
2023-03-16T04:36:24.103Z,0.32
2023-03-16T04:39:26.353Z,0.20
2023-03-16T04:42:29.316Z,0.24
2023-03-16T04:45:32.318Z,0.01
2023-03-16T04:48:36.548Z,0.72
2023-03-16T04:51:42.384Z,0.60
2023-03-16T04:54:48.492Z,0.54
2023-03-16T04:57:52.488Z,0.55
2023-03-16T05:00:56.038Z,0.50
2023-03-16T05:04:03.758Z,0.84
2023-03-16T05:07:08.843Z,0.69
2023-03-16T05:10:15.529Z,0.58
2023-03-16T05:13:17.452Z,0.48
2023-03-16T05:16:22.025Z,0.41
2023-03-16T05:19:26.534Z,0.37
2023-03-16T05:22:28.322Z,0.25
2023-03-16T05:25:46.110Z,0.23
2023-03-16T05:28:49.870Z,0.08
2023-03-16T05:31:54.031Z,0.10
2023-03-16T05:34:59.474Z,0.06
2023-03-16T05:38:02.617Z,0.04
2023-03-16T05:41:06.336Z,0.07
2023-03-16T05:44:37.289Z,0.06
2023-03-16T05:48:08.150Z,-0.01
2023-03-16T05:51:16.962Z,-0.04
2023-03-16T05:54:21.788Z,0.00
2023-03-16T05:57:23.785Z,0.13
2023-03-16T06:00:27.826Z,0.13
2023-03-16T06:03:41.859Z,0.15
2023-03-16T06:06:48.656Z,0.19
2023-03-16T06:09:59.393Z,0.31
2023-03-16T06:13:02.020Z,0.33
2023-03-16T06:16:06.171Z,0.50
2023-03-16T06:19:09.886Z,0.46
2023-03-16T06:22:13.135Z,0.56
2023-03-16T06:25:15.931Z,0.58
2023-03-16T06:28:19.864Z,0.64
2023-03-16T06:31:21.902Z,0.69
2023-03-16T06:34:23.756Z,0.75
2023-03-16T06:37:26.879Z,0.73
2023-03-16T06:40:29.183Z,0.75
2023-03-16T06:43:31.165Z,0.79
2023-03-16T06:46:33.104Z,0.92
2023-03-16T06:49:37.044Z,0.97
2023-03-16T06:52:47.982Z,1.09
2023-03-16T06:55:49.986Z,1.13
2023-03-16T06:58:52.227Z,1.34
2023-03-16T07:01:54.046Z,1.34
2023-03-16T07:04:55.794Z,1.76
2023-03-16T07:08:00.211Z,1.96
2023-03-16T07:11:02.108Z,2.14
2023-03-16T07:14:05.040Z,2.54
2023-03-16T07:17:08.201Z,2.75
2023-03-16T07:20:12.907Z,2.84
2023-03-16T07:23:16.398Z,3.05
2023-03-16T07:26:19.289Z,3.24
2023-03-16T07:29:28.110Z,3.20
2023-03-16T07:32:32.414Z,3.24
2023-03-16T07:35:34.824Z,3.18
2023-03-16T07:38:38.023Z,3.17
2023-03-16T07:41:40.239Z,3.26
2023-03-16T07:45:06.630Z,3.35
2023-03-16T07:48:08.541Z,3.34
2023-03-16T07:51:36.563Z,3.31
2023-03-16T07:54:40.282Z,3.51
2023-03-16T07:57:47.722Z,3.65
2023-03-16T08:00:51.996Z,3.91
2023-03-16T08:03:54.784Z,3.91
2023-03-16T08:07:00.203Z,4.05
2023-03-16T08:10:10.434Z,4.26
2023-03-16T08:13:19.571Z,4.56
2023-03-16T08:16:22.182Z,4.53
2023-03-16T08:19:25.000Z,4.75
2023-03-16T08:22:27.782Z,4.98
2023-03-16T08:25:31.373Z,4.93
2023-03-16T08:28:39.472Z,4.90
2023-03-16T08:31:45.062Z,5.05
2023-03-16T08:34:50.441Z,5.13
2023-03-16T08:37:54.314Z,5.30
2023-03-16T08:40:58.234Z,5.47
2023-03-16T08:44:01.967Z,5.63
2023-03-16T08:47:05.135Z,5.62
2023-03-16T08:50:10.855Z,5.85
2023-03-16T08:53:14.795Z,6.04
2023-03-16T08:56:18.181Z,6.16
2023-03-16T08:59:29.684Z,6.31
2023-03-16T09:02:32.126Z,6.40
2023-03-16T09:05:34.584Z,6.45
2023-03-16T09:08:39.051Z,6.59
2023-03-16T09:11:42.198Z,6.73
2023-03-16T09:14:44.003Z,6.83
2023-03-16T09:17:45.854Z,6.96
2023-03-16T09:20:50.346Z,7.01
2023-03-16T09:23:52.147Z,7.48
2023-03-16T09:26:55.158Z,7.55
2023-03-16T09:29:59.432Z,7.51
2023-03-16T09:33:01.297Z,7.65
2023-03-16T09:36:03.585Z,7.56
2023-03-16T09:39:05.425Z,7.41
2023-03-16T09:42:16.262Z,7.60
2023-03-16T09:45:26.411Z,7.59
2023-03-16T09:48:30.626Z,7.59
2023-03-16T09:51:43.428Z,7.98
2023-03-16T09:54:56.772Z,8.24
2023-03-16T09:58:01.405Z,7.78
2023-03-16T10:01:11.990Z,7.89
2023-03-16T10:04:24.528Z,8.05
2023-03-16T10:07:38.086Z,8.11
2023-03-16T10:10:58.710Z,8.67
2023-03-16T10:14:09.551Z,8.28
2023-03-16T10:17:17.662Z,8.51
2023-03-16T10:20:22.475Z,8.64
2023-03-16T10:23:25.062Z,8.80
2023-03-16T10:26:34.026Z,8.76
2023-03-16T10:29:37.039Z,9.15
2023-03-16T10:32:38.798Z,9.08
2023-03-16T10:35:46.244Z,9.26
2023-03-16T10:38:51.578Z,9.21
2023-03-16T10:41:57.760Z,9.02
2023-03-16T10:45:03.041Z,9.52
2023-03-16T10:48:09.357Z,9.57
2023-03-16T10:51:14.781Z,9.76
2023-03-16T10:54:25.652Z,9.90
2023-03-16T10:57:33.426Z,10.02
2023-03-16T11:00:41.478Z,10.24
2023-03-16T11:03:47.764Z,10.38
2023-03-16T11:06:54.030Z,10.59
2023-03-16T11:09:56.563Z,10.68
2023-03-16T11:13:03.252Z,10.64
2023-03-16T11:16:21.427Z,10.76
2023-03-16T11:19:27.203Z,10.45
2023-03-16T11:22:30.182Z,10.75
2023-03-16T11:25:38.615Z,10.71
2023-03-16T11:28:46.322Z,10.95
2023-03-16T11:31:53.581Z,11.12
2023-03-16T11:34:55.348Z,11.39
2023-03-16T11:38:09.573Z,11.48
2023-03-16T11:41:15.342Z,11.19
2023-03-16T11:44:28.659Z,11.00
2023-03-16T11:47:49.700Z,11.11
2023-03-16T11:51:03.710Z,11.10
2023-03-16T11:54:16.102Z,11.11
2023-03-16T11:57:32.892Z,11.36
2023-03-16T12:00:40.558Z,11.26
2023-03-16T12:03:57.021Z,11.49
2023-03-16T12:07:14.575Z,11.60
2023-03-16T12:10:26.168Z,11.65
2023-03-16T12:13:39.963Z,11.55
2023-03-16T12:16:49.758Z,11.78
2023-03-16T12:19:57.314Z,11.76
2023-03-16T12:23:06.064Z,11.45
2023-03-16T12:26:09.069Z,11.61
2023-03-16T12:29:20.962Z,11.81
2023-03-16T12:32:36.595Z,11.94
2023-03-16T12:35:48.835Z,12.33
2023-03-16T12:38:57.082Z,12.78
2023-03-16T12:42:09.976Z,13.37
2023-03-16T12:45:17.598Z,13.31
2023-03-16T12:48:27.389Z,12.34
2023-03-16T12:51:38.624Z,13.37
2023-03-16T12:54:52.029Z,13.20
2023-03-16T12:58:02.057Z,13.71
2023-03-16T13:01:10.519Z,14.02
2023-03-16T13:04:27.292Z,13.45
2023-03-16T13:07:31.775Z,14.37
2023-03-16T13:10:33.683Z,12.95
2023-03-16T13:13:47.095Z,13.69
2023-03-16T13:16:49.815Z,13.48
2023-03-16T13:20:00.598Z,13.48
2023-03-16T13:23:30.314Z,14.14
2023-03-16T13:26:50.491Z,14.30
2023-03-16T13:29:57.422Z,14.51
2023-03-16T13:33:06.372Z,14.41
2023-03-16T13:36:08.547Z,14.27
2023-03-16T13:39:18.694Z,14.57
2023-03-16T13:42:22.148Z,14.97
2023-03-16T13:45:29.022Z,15.14
2023-03-16T13:48:37.283Z,14.87
2023-03-16T13:51:39.310Z,15.26
2023-03-16T13:54:42.429Z,13.79
2023-03-16T13:57:45.640Z,14.51
2023-03-16T14:00:47.535Z,14.39
2023-03-16T14:03:49.412Z,14.79
2023-03-16T14:06:56.201Z,14.14
2023-03-16T14:09:59.349Z,13.97
2023-03-16T14:13:08.503Z,13.70
2023-03-16T14:16:17.621Z,13.49
2023-03-16T14:19:24.254Z,13.81
2023-03-16T14:22:33.835Z,13.77
2023-03-16T14:25:37.017Z,13.61
2023-03-16T14:28:39.226Z,13.70
2023-03-16T14:31:41.050Z,13.94
2023-03-16T14:34:44.530Z,14.06
2023-03-16T14:37:46.626Z,13.71
2023-03-16T14:40:55.139Z,14.14
2023-03-16T14:43:59.509Z,14.62
2023-03-16T14:47:04.229Z,14.81
2023-03-16T14:50:08.667Z,14.13
2023-03-16T14:53:11.342Z,14.82
2023-03-16T14:56:14.551Z,13.91
2023-03-16T14:59:16.650Z,13.34
2023-03-16T15:02:21.214Z,13.58
2023-03-16T15:05:24.323Z,13.83
2023-03-16T15:08:28.605Z,14.28
2023-03-16T15:11:31.829Z,13.97
2023-03-16T15:14:52.422Z,14.23
2023-03-16T15:17:54.236Z,13.77
2023-03-16T15:20:56.521Z,13.67
2023-03-16T15:24:01.129Z,13.58
2023-03-16T15:27:09.914Z,13.30
2023-03-16T15:30:16.798Z,12.97
2023-03-16T15:33:18.809Z,12.97
2023-03-16T15:36:22.410Z,13.01
2023-03-16T15:39:25.057Z,12.94
2023-03-16T15:42:28.125Z,13.25
2023-03-16T15:45:30.021Z,13.20
2023-03-16T15:48:32.517Z,12.86
2023-03-16T15:51:34.439Z,12.90
2023-03-16T15:54:36.811Z,12.62
2023-03-16T15:57:40.207Z,12.70
2023-03-16T16:00:42.193Z,12.68
2023-03-16T16:03:44.815Z,12.42
2023-03-16T16:06:47.548Z,12.14
2023-03-16T16:09:49.357Z,11.92
2023-03-16T16:12:54.767Z,11.73
2023-03-16T16:15:56.477Z,11.77
2023-03-16T16:18:58.250Z,11.71
2023-03-16T16:21:59.932Z,11.62
2023-03-16T16:25:01.675Z,11.27
2023-03-16T16:28:13.663Z,11.16
2023-03-16T16:31:16.533Z,11.21
2023-03-16T16:34:21.478Z,11.19
2023-03-16T16:37:24.342Z,11.12
2023-03-16T16:40:38.201Z,10.96
2023-03-16T16:43:44.119Z,10.97
2023-03-16T16:46:47.999Z,10.84
2023-03-16T16:49:51.068Z,10.73
2023-03-16T16:52:54.350Z,10.64
2023-03-16T16:55:57.350Z,10.57
2023-03-16T16:59:07.387Z,10.46
2023-03-16T17:02:21.925Z,10.49
2023-03-16T17:05:25.739Z,10.39
2023-03-16T17:08:28.451Z,10.40
2023-03-16T17:11:32.163Z,10.12
2023-03-16T17:14:36.094Z,9.97
2023-03-16T17:17:37.734Z,10.17
2023-03-16T17:20:39.834Z,9.95
2023-03-16T17:23:42.051Z,9.84
2023-03-16T17:26:46.306Z,9.61
2023-03-16T17:29:49.452Z,9.66
2023-03-16T17:32:52.674Z,9.78
2023-03-16T17:35:55.053Z,9.58
2023-03-16T17:38:57.984Z,9.40
2023-03-16T17:42:01.868Z,9.44
2023-03-16T17:45:17.070Z,9.40
2023-03-16T17:48:20.634Z,9.59
2023-03-16T17:51:25.528Z,9.36
2023-03-16T17:54:28.971Z,9.16
2023-03-16T17:57:31.981Z,9.07
2023-03-16T18:00:36.620Z,8.95
2023-03-16T18:03:38.824Z,9.11
2023-03-16T18:06:42.893Z,9.03
2023-03-16T18:09:45.065Z,9.06
2023-03-16T18:12:50.130Z,9.03
2023-03-16T18:15:55.144Z,8.97
2023-03-16T18:18:59.885Z,9.15
2023-03-16T18:22:03.658Z,9.10
2023-03-16T18:25:26.665Z,9.21
2023-03-16T18:28:29.660Z,9.21
2023-03-16T18:31:32.768Z,9.50
2023-03-16T18:34:35.594Z,9.28
2023-03-16T18:37:37.687Z,9.23
2023-03-16T18:40:40.103Z,9.31
2023-03-16T18:43:42.320Z,9.31
2023-03-16T18:46:47.101Z,9.31
2023-03-16T18:49:52.851Z,9.13
2023-03-16T18:52:55.293Z,9.31
2023-03-16T18:55:57.676Z,9.24
2023-03-16T18:58:59.656Z,9.30
2023-03-16T19:02:04.047Z,9.45
2023-03-16T19:05:12.765Z,9.27
2023-03-16T19:08:15.469Z,9.28
2023-03-16T19:11:18.218Z,9.35
2023-03-16T19:14:22.602Z,9.38
2023-03-16T19:17:25.973Z,9.19
2023-03-16T19:20:29.405Z,9.23
2023-03-16T19:23:35.453Z,9.38
2023-03-16T19:26:37.251Z,9.26
2023-03-16T19:29:39.130Z,9.30
2023-03-16T19:32:42.318Z,9.20
2023-03-16T19:35:51.377Z,9.30
2023-03-16T19:38:54.086Z,9.22
2023-03-16T19:41:57.892Z,9.33
2023-03-16T19:45:00.221Z,9.19
2023-03-16T19:48:10.283Z,9.42
2023-03-16T19:51:13.459Z,9.23
2023-03-16T19:54:22.233Z,9.19
2023-03-16T19:57:25.256Z,9.22
2023-03-16T20:00:28.228Z,9.28
2023-03-16T20:03:34.856Z,9.26
2023-03-16T20:06:36.679Z,9.38
2023-03-16T20:09:38.602Z,9.29
2023-03-16T20:12:41.855Z,9.34
2023-03-16T20:15:43.979Z,9.54
2023-03-16T20:18:49.546Z,9.42
2023-03-16T20:21:51.327Z,9.37
2023-03-16T20:24:54.416Z,9.58
2023-03-16T20:28:01.183Z,9.42
2023-03-16T20:31:05.000Z,9.26
2023-03-16T20:34:23.659Z,9.24
2023-03-16T20:37:27.918Z,9.35
2023-03-16T20:40:29.710Z,9.37
2023-03-16T20:43:32.774Z,9.30
2023-03-16T20:46:34.872Z,9.40
2023-03-16T20:49:38.034Z,9.25
2023-03-16T20:52:39.873Z,9.06
2023-03-16T20:55:41.680Z,9.09
2023-03-16T20:58:45.804Z,9.38
2023-03-16T21:01:47.945Z,9.27
2023-03-16T21:04:51.133Z,9.13
2023-03-16T21:07:53.501Z,9.28
2023-03-16T21:10:57.324Z,9.14
2023-03-16T21:13:59.156Z,9.45
2023-03-16T21:17:01.275Z,9.36
2023-03-16T21:20:14.548Z,9.41
2023-03-16T21:23:18.316Z,9.42
2023-03-16T21:26:22.849Z,9.05
2023-03-16T21:29:24.966Z,9.17
2023-03-16T21:32:28.326Z,9.16
2023-03-16T21:35:34.811Z,9.18
2023-03-16T21:38:36.698Z,8.92
2023-03-16T21:41:38.450Z,9.00
2023-03-16T21:44:40.291Z,9.05
2023-03-16T21:47:43.086Z,9.23
2023-03-16T21:50:48.002Z,9.25
2023-03-16T21:53:49.662Z,9.10
2023-03-16T21:56:51.544Z,9.13
2023-03-16T21:59:53.324Z,9.25
2023-03-16T22:02:57.738Z,9.15
2023-03-16T22:06:00.991Z,9.12
2023-03-16T22:09:04.091Z,9.15
2023-03-16T22:12:09.510Z,9.10
2023-03-16T22:15:12.484Z,9.11
2023-03-16T22:18:30.830Z,9.12
2023-03-16T22:21:36.347Z,9.28
2023-03-16T22:24:38.106Z,9.49
2023-03-16T22:27:40.138Z,9.24
2023-03-16T22:30:42.085Z,9.13
2023-03-16T22:33:45.815Z,9.06
2023-03-16T22:36:48.980Z,8.99
2023-03-16T22:39:50.999Z,8.96
2023-03-16T22:42:54.009Z,9.05
2023-03-16T22:45:56.888Z,8.95
2023-03-16T22:48:58.701Z,9.00
2023-03-16T22:52:02.018Z,8.90
2023-03-16T22:55:06.890Z,9.32
2023-03-16T22:58:15.664Z,9.10
2023-03-16T23:01:20.344Z,9.15
2023-03-16T23:04:24.716Z,9.15
2023-03-16T23:07:27.988Z,9.05
2023-03-16T23:10:31.285Z,9.37
2023-03-16T23:13:33.784Z,9.20
2023-03-16T23:16:37.358Z,9.06
2023-03-16T23:19:39.554Z,9.06
2023-03-16T23:22:42.745Z,9.01
2023-03-16T23:25:46.139Z,9.11
2023-03-16T23:28:48.919Z,8.99
2023-03-16T23:31:51.218Z,8.97
2023-03-16T23:34:53.501Z,8.86
2023-03-16T23:37:57.754Z,8.95
2023-03-16T23:40:59.623Z,9.00
2023-03-16T23:44:01.907Z,8.94
2023-03-16T23:47:03.645Z,8.90
2023-03-16T23:50:06.761Z,8.85
2023-03-16T23:53:13.929Z,8.96
2023-03-16T23:56:15.641Z,8.90
2023-03-16T23:59:19.532Z,8.96
